Time;durP1;ratioP1;P1;durP2;ratioP2;P2;SDS_P1;SDS_P2;PMS_P1;PMS_P2;Temp;Humidity;BMP_temperature;BMP_pressure;BME280_temperature;BME280_humidity;BME280_pressure;Samples;Min_cycle;Max_cycle;Signal;HPM_P1;HPM_P2
2022/12/05 00:02:22;;;;;;;;;;;3.80;99.90;;;;;;5053058;28;19936;-81
2022/12/05 00:04:49;;;;;;;;;;;3.90;99.90;;;;;;5052967;28;20374;-80
2022/12/05 00:07:15;;;;;;;;;;;3.90;99.90;;;;;;5030991;28;19935;-79
2022/12/05 00:09:44;;;;;;;;;;;4.00;99.90;;;;;;5061973;28;19995;-81
2022/12/05 00:12:10;;;;;;;;;;;4.00;99.90;;;;;;5061886;28;19924;-79
2022/12/05 00:14:37;;;;;;;;;;;4.00;99.90;;;;;;5052718;28;19929;-79
2022/12/05 00:17:04;;;;;;;;;;;4.00;99.90;;;;;;5058621;28;19929;-78
2022/12/05 00:19:31;;;;;;;;;;;4.00;99.90;;;;;;5031076;28;19956;-80
2022/12/05 00:21:57;;;;;;;;;;;4.00;99.90;;;;;;5042905;28;19929;-80
2022/12/05 00:24:24;;;;;;;;;;;4.10;99.90;;;;;;5042394;28;20374;-79
2022/12/05 00:26:52;;;;;;;;;;;4.00;99.90;;;;;;5048969;28;19932;-79
2022/12/05 00:29:19;;;;;;;;;;;4.00;99.90;;;;;;5051147;28;19928;-81
2022/12/05 00:31:46;;;;;;;;;;;4.00;99.90;;;;;;5051564;28;19929;-80
2022/12/05 00:34:12;;;;;;;;;;;4.00;99.90;;;;;;5029937;28;19925;-80
2022/12/05 00:36:39;;;;;;;;;;;4.10;99.90;;;;;;5052253;28;19939;-79
2022/12/05 00:39:07;;;;;;;;;;;4.10;99.90;;;;;;5049868;28;20382;-79
2022/12/05 00:41:33;;;;;;;;;;;4.10;99.90;;;;;;5049739;28;20282;-79
2022/12/05 00:44:02;;;;;;;;;;;4.10;99.90;;;;;;5034114;28;20373;-80
2022/12/05 00:46:30;;;;;;;;;;;4.10;99.90;;;;;;5041654;28;20382;-80
2022/12/05 00:48:57;;;;;;;;;;;4.10;99.90;;;;;;5035169;28;19929;-79
2022/12/05 00:51:25;;;;;;;;;;;4.20;99.90;;;;;;5039055;28;20291;-79
2022/12/05 00:53:53;;;;;;;;;;;4.10;99.90;;;;;;5038320;28;19968;-79
2022/12/05 00:56:21;;;;;;;;;;;4.00;99.90;;;;;;5047998;28;19931;-80
2022/12/05 00:58:48;;;;;;;;;;;4.00;99.90;;;;;;5049809;28;19932;-81
2022/12/05 01:01:17;;;;;;;;;;;4.00;99.90;;;;;;5045721;28;19935;-79
2022/12/05 01:03:44;;;;;;;;;;;4.00;99.90;;;;;;5049170;28;20286;-80
2022/12/05 01:06:12;;;;;;;;;;;4.00;99.90;;;;;;5053368;28;20382;-79
2022/12/05 01:08:39;;;;;;;;;;;3.90;99.90;;;;;;5032614;28;19990;-81
2022/12/05 01:11:06;;;;;;;;;;;3.90;99.90;;;;;;5042727;28;19929;-81
2022/12/05 01:13:33;;;;;;;;;;;3.90;99.90;;;;;;5032674;28;19935;-80
2022/12/05 01:16:00;;;;;;;;;;;3.90;99.90;;;;;;5034547;28;19932;-80
2022/12/05 01:18:29;;;;;;;;;;;4.30;99.90;;;;;;5033610;28;19929;-80
2022/12/05 01:20:56;;;;;;;;;;;4.00;99.90;;;;;;5037238;28;20295;-78
2022/12/05 01:23:22;;;;;;;;;;;4.00;99.90;;;;;;5051641;28;19935;-78
2022/12/05 01:25:50;;;;;;;;;;;4.10;99.90;;;;;;5050393;28;20370;-79
2022/12/05 01:28:17;;;;;;;;;;;4.10;99.90;;;;;;5049481;28;19929;-79
2022/12/05 01:30:45;;;;;;;;;;;4.00;99.90;;;;;;5055451;28;19986;-78
2022/12/05 01:33:12;;;;;;;;;;;4.00;99.90;;;;;;5053959;28;20023;-79
2022/12/05 01:35:41;;;;;;;;;;;4.00;99.90;;;;;;5031384;28;19929;-79
2022/12/05 01:38:08;;;;;;;;;;;4.00;99.90;;;;;;5051288;28;20011;-79
2022/12/05 01:40:36;;;;;;;;;;;4.00;99.90;;;;;;5062083;28;19940;-81
2022/12/05 01:43:03;;;;;;;;;;;4.10;99.90;;;;;;5051082;28;19978;-81
2022/12/05 01:45:32;;;;;;;;;;;4.10;99.90;;;;;;5028712;28;19937;-81
2022/12/05 01:47:59;;;;;;;;;;;4.10;99.90;;;;;;5028238;28;19975;-80
2022/12/05 01:50:26;;;;;;;;;;;4.00;99.90;;;;;;5049652;28;19924;-81
2022/12/05 01:52:55;;;;;;;;;;;4.20;99.90;;;;;;5056494;28;19929;-79
2022/12/05 01:55:22;;;;;;;;;;;4.20;99.90;;;;;;5042854;28;19967;-81
2022/12/05 01:57:49;;;;;;;;;;;4.30;99.90;;;;;;5042791;28;19925;-79
2022/12/05 02:00:17;;;;;;;;;;;4.20;99.90;;;;;;5029868;28;19929;-79
2022/12/05 02:02:46;;;;;;;;;;;4.30;99.90;;;;;;5048167;28;19929;-78
2022/12/05 02:05:15;;;;;;;;;;;4.20;99.90;;;;;;5027776;28;19928;-80
2022/12/05 02:07:43;;;;;;;;;;;4.20;99.90;;;;;;5024695;28;20023;-79
2022/12/05 02:10:11;;;;;;;;;;;4.10;99.90;;;;;;5044377;28;20019;-80
2022/12/05 02:12:38;;;;;;;;;;;4.20;99.90;;;;;;5050083;28;19929;-80
2022/12/05 02:15:29;;;;;;;;;;;4.10;99.90;;;;;;5032087;28;19932;-80
2022/12/05 02:18:00;;;;;;;;;;;4.20;99.90;;;;;;5037331;28;19976;-79
2022/12/05 02:20:34;;;;;;;;;;;4.10;99.90;;;;;;5031508;28;20520;-79
2022/12/05 02:23:12;;;;;;;;;;;4.20;99.90;;;;;;5042925;28;20344;-80
2022/12/05 02:25:54;;;;;;;;;;;4.20;99.90;;;;;;5041486;28;19925;-81
2022/12/05 02:28:36;;;;;;;;;;;4.20;99.90;;;;;;5047099;28;20008;-80
2022/12/05 02:31:07;;;;;;;;;;;4.20;99.90;;;;;;5029302;28;19959;-79
2022/12/05 02:33:35;;;;;;;;;;;4.20;99.90;;;;;;5049633;28;19929;-81
2022/12/05 02:36:05;;;;;;;;;;;4.20;99.90;;;;;;5049307;28;20370;-79
2022/12/05 02:38:36;;;;;;;;;;;4.00;99.90;;;;;;5050268;28;19929;-80
2022/12/05 02:41:08;;;;;;;;;;;4.10;99.90;;;;;;5057254;28;20410;-80
2022/12/05 02:43:37;;;;;;;;;;;4.10;99.90;;;;;;5051502;28;19929;-79
2022/12/05 02:46:08;;;;;;;;;;;4.10;99.90;;;;;;5052267;28;20343;-80
2022/12/05 02:48:36;;;;;;;;;;;4.10;99.90;;;;;;5048857;28;20397;-79
2022/12/05 02:51:04;;;;;;;;;;;4.20;99.90;;;;;;5049264;28;19933;-79
2022/12/05 02:53:31;;;;;;;;;;;4.10;99.90;;;;;;5049835;28;20031;-79
2022/12/05 02:55:57;;;;;;;;;;;4.10;99.90;;;;;;5051416;28;19947;-79
2022/12/05 02:58:26;;;;;;;;;;;4.10;99.90;;;;;;5034106;28;19929;-79
2022/12/05 03:00:55;;;;;;;;;;;4.10;99.90;;;;;;5052233;28;19953;-79
2022/12/05 03:03:24;;;;;;;;;;;4.10;99.90;;;;;;5053868;28;19948;-80
2022/12/05 03:05:54;;;;;;;;;;;4.10;99.90;;;;;;5035964;28;19936;-79
2022/12/05 03:08:21;;;;;;;;;;;4.10;99.90;;;;;;5050905;28;20037;-79
2022/12/05 03:10:49;;;;;;;;;;;4.10;99.90;;;;;;5051124;28;19929;-80
2022/12/05 03:13:18;;;;;;;;;;;4.00;99.90;;;;;;5050728;28;19933;-79
2022/12/05 03:15:46;;;;;;;;;;;4.00;99.90;;;;;;5034796;28;20420;-80
2022/12/05 03:18:17;;;;;;;;;;;3.70;99.90;;;;;;5034289;28;19933;-79
2022/12/05 03:20:47;;;;;;;;;;;4.00;99.90;;;;;;5052028;28;20366;-79
2022/12/05 03:23:15;;;;;;;;;;;4.00;99.90;;;;;;5035312;28;19964;-79
2022/12/05 03:25:47;;;;;;;;;;;4.10;99.90;;;;;;5033892;28;20428;-79
2022/12/05 03:28:18;;;;;;;;;;;4.00;99.90;;;;;;5051445;28;19940;-79
2022/12/05 03:30:47;;;;;;;;;;;4.00;99.90;;;;;;5051105;28;19928;-79
2022/12/05 03:33:15;;;;;;;;;;;4.00;99.90;;;;;;5032558;28;19925;-79
2022/12/05 03:35:44;;;;;;;;;;;3.70;99.90;;;;;;5032065;28;19975;-78
2022/12/05 03:38:14;;;;;;;;;;;3.40;99.90;;;;;;5050886;28;20251;-79
2022/12/05 03:40:42;;;;;;;;;;;3.30;99.90;;;;;;5032443;28;19925;-78
2022/12/05 03:43:10;;;;;;;;;;;3.20;99.90;;;;;;5052232;28;20408;-78
2022/12/05 03:45:39;;;;;;;;;;;3.20;99.90;;;;;;5049200;28;19936;-78
2022/12/05 03:48:09;;;;;;;;;;;3.20;99.90;;;;;;5052554;28;19929;-78
2022/12/05 03:50:37;;;;;;;;;;;3.20;99.90;;;;;;5034788;28;19932;-78
2022/12/05 03:53:07;;;;;;;;;;;3.20;99.90;;;;;;5034197;28;20004;-78
2022/12/05 03:55:37;;;;;;;;;;;3.20;99.90;;;;;;5033351;28;19952;-78
2022/12/05 03:58:06;;;;;;;;;;;3.20;99.90;;;;;;5050871;28;19963;-78
2022/12/05 04:00:35;;;;;;;;;;;3.30;99.90;;;;;;5049549;28;19936;-78
2022/12/05 04:03:05;;;;;;;;;;;3.30;99.90;;;;;;5049788;28;19933;-79
2022/12/05 04:05:35;;;;;;;;;;;3.40;99.90;;;;;;5049971;28;19928;-78
2022/12/05 04:08:04;;;;;;;;;;;3.40;99.90;;;;;;5026210;28;20557;-78
2022/12/05 04:10:47;;;;;;;;;;;3.40;99.90;;;;;;5043552;28;19971;-78
2022/12/05 04:13:17;;;;;;;;;;;3.40;99.90;;;;;;5048609;28;19932;-79
2022/12/05 04:18:28;;;;;;;;;;;3.30;99.90;;;;;;5049698;28;20031;-78
2022/12/05 04:23:40;;;;;;;;;;;3.40;99.90;;;;;;5050556;28;19931;-78
2022/12/05 04:26:08;;;;;;;;;;;3.40;99.90;;;;;;5036439;28;20386;-78
2022/12/05 04:28:39;;;;;;;;;;;3.40;99.90;;;;;;5054722;28;19921;-79
2022/12/05 04:31:07;;;;;;;;;;;3.50;99.90;;;;;;5053617;28;20046;-79
2022/12/05 04:33:37;;;;;;;;;;;3.40;99.90;;;;;;5035153;28;20333;-79
2022/12/05 04:36:07;;;;;;;;;;;3.50;99.90;;;;;;5046102;28;19933;-79
2022/12/05 04:38:37;;;;;;;;;;;3.60;99.90;;;;;;5034058;28;20511;-79
2022/12/05 04:41:06;;;;;;;;;;;3.60;99.90;;;;;;5047179;28;19929;-79
2022/12/05 04:43:34;;;;;;;;;;;3.60;99.90;;;;;;5031135;28;19929;-79
2022/12/05 04:46:04;;;;;;;;;;;3.60;99.90;;;;;;5034517;28;20000;-79
2022/12/05 04:48:31;;;;;;;;;;;3.60;99.90;;;;;;5050874;28;20313;-78
2022/12/05 04:50:58;;;;;;;;;;;3.70;99.90;;;;;;5049392;28;20259;-79
2022/12/05 04:53:26;;;;;;;;;;;3.60;99.90;;;;;;5049180;28;19950;-79
2022/12/05 04:55:55;;;;;;;;;;;3.60;99.90;;;;;;5051283;28;20301;-79
2022/12/05 04:58:23;;;;;;;;;;;3.70;99.90;;;;;;5054236;28;19969;-79
2022/12/05 05:00:52;;;;;;;;;;;3.70;99.90;;;;;;5048755;28;19932;-78
2022/12/05 05:03:22;;;;;;;;;;;3.70;99.90;;;;;;5031255;28;20302;-78
2022/12/05 05:05:51;;;;;;;;;;;3.60;99.90;;;;;;5031102;28;19935;-78
2022/12/05 05:08:19;;;;;;;;;;;3.60;99.90;;;;;;5038646;28;19924;-79
2022/12/05 05:10:49;;;;;;;;;;;3.60;99.90;;;;;;5037052;28;19970;-78
2022/12/05 05:13:15;;;;;;;;;;;3.70;99.90;;;;;;5049434;28;19924;-78
2022/12/05 05:15:42;;;;;;;;;;;3.60;99.90;;;;;;5055343;28;19931;-79
2022/12/05 05:18:09;;;;;;;;;;;3.60;99.90;;;;;;5044544;28;19928;-79
2022/12/05 05:20:37;;;;;;;;;;;3.70;99.90;;;;;;5049184;28;20030;-79
2022/12/05 05:23:04;;;;;;;;;;;3.70;99.90;;;;;;5037737;28;20294;-78
2022/12/05 05:25:31;;;;;;;;;;;3.70;99.90;;;;;;5066455;28;19936;-80
2022/12/05 05:27:58;;;;;;;;;;;3.70;99.90;;;;;;5046223;28;19925;-78
2022/12/05 05:30:25;;;;;;;;;;;3.70;99.90;;;;;;5046855;28;19929;-79
2022/12/05 05:32:53;;;;;;;;;;;3.70;99.90;;;;;;5063479;28;20400;-78
2022/12/05 05:35:20;;;;;;;;;;;3.70;99.90;;;;;;5058594;28;19924;-79
2022/12/05 05:37:48;;;;;;;;;;;3.70;99.90;;;;;;5045669;28;19935;-79
2022/12/05 05:40:16;;;;;;;;;;;3.70;99.90;;;;;;5042471;28;20028;-78
2022/12/05 05:42:44;;;;;;;;;;;3.70;99.90;;;;;;5041456;28;19979;-78
2022/12/05 05:45:12;;;;;;;;;;;3.70;99.90;;;;;;5034131;28;19937;-79
2022/12/05 05:47:39;;;;;;;;;;;3.70;99.90;;;;;;5057681;28;20400;-79
2022/12/05 05:50:06;;;;;;;;;;;3.70;99.90;;;;;;5036150;28;19942;-79
2022/12/05 05:52:33;;;;;;;;;;;3.60;99.90;;;;;;5061510;28;19929;-80
2022/12/05 05:55:01;;;;;;;;;;;3.60;99.90;;;;;;5058943;28;20054;-78
2022/12/05 05:57:28;;;;;;;;;;;3.60;99.90;;;;;;5052656;28;19928;-79
2022/12/05 05:59:55;;;;;;;;;;;3.60;99.90;;;;;;5039704;28;20006;-80
2022/12/05 06:02:22;;;;;;;;;;;3.60;99.90;;;;;;5050821;28;19928;-79
2022/12/05 06:04:48;;;;;;;;;;;3.60;99.90;;;;;;5050693;28;19929;-79
2022/12/05 06:07:15;;;;;;;;;;;3.70;99.90;;;;;;5058596;28;19925;-80
2022/12/05 06:09:42;;;;;;;;;;;3.70;99.90;;;;;;5058013;28;20032;-78
2022/12/05 06:12:10;;;;;;;;;;;3.60;99.90;;;;;;5039838;28;19924;-79
2022/12/05 06:14:37;;;;;;;;;;;3.70;99.90;;;;;;5039213;28;19939;-79
2022/12/05 06:17:03;;;;;;;;;;;3.70;99.90;;;;;;5038184;28;20194;-79
2022/12/05 06:19:30;;;;;;;;;;;3.70;99.90;;;;;;5050257;28;19928;-79
2022/12/05 06:21:57;;;;;;;;;;;3.80;99.90;;;;;;5022252;28;20323;-79
2022/12/05 06:24:24;;;;;;;;;;;3.80;99.90;;;;;;5044855;28;19998;-79
2022/12/05 06:26:50;;;;;;;;;;;3.90;99.90;;;;;;5044397;28;19951;-79
2022/12/05 06:29:18;;;;;;;;;;;3.80;99.90;;;;;;5026774;28;19933;-79
2022/12/05 06:31:45;;;;;;;;;;;3.70;99.90;;;;;;5044972;28;19999;-79
2022/12/05 06:34:12;;;;;;;;;;;3.70;99.90;;;;;;5027676;28;19928;-82
2022/12/05 06:36:38;;;;;;;;;;;3.70;99.90;;;;;;5031851;28;19929;-82
2022/12/05 06:39:05;;;;;;;;;;;3.70;99.90;;;;;;5020624;28;19928;-82
2022/12/05 06:41:32;;;;;;;;;;;3.70;99.90;;;;;;5034026;28;20661;-80
2022/12/05 06:43:59;;;;;;;;;;;3.60;99.90;;;;;;5045871;28;19955;-81
2022/12/05 06:46:27;;;;;;;;;;;3.60;99.90;;;;;;5033980;28;19925;-81
2022/12/05 06:48:54;;;;;;;;;;;3.50;99.90;;;;;;5051740;28;19931;-80
2022/12/05 06:51:20;;;;;;;;;;;3.40;99.90;;;;;;5050805;28;19975;-80
2022/12/05 06:53:47;;;;;;;;;;;4.90;99.90;;;;;;5050452;28;19937;-79
2022/12/05 06:56:15;;;;;;;;;;;3.30;99.90;;;;;;5049396;28;19924;-79
2022/12/05 06:58:42;;;;;;;;;;;3.30;99.90;;;;;;5031351;28;20439;-79
2022/12/05 07:03:56;;;;;;;;;;;3.20;99.90;;;;;;5046678;28;20010;-78
2022/12/05 07:06:23;;;;;;;;;;;3.30;99.90;;;;;;5061423;28;19990;-78
2022/12/05 07:08:49;;;;;;;;;;;3.30;99.90;;;;;;5048816;28;20016;-80
2022/12/05 07:11:16;;;;;;;;;;;3.30;99.90;;;;;;5036887;28;19925;-79
2022/12/05 07:13:43;;;;;;;;;;;3.30;99.90;;;;;;5030571;28;19940;-79
2022/12/05 07:16:09;;;;;;;;;;;3.20;99.90;;;;;;5032252;28;20329;-79
2022/12/05 07:18:36;;;;;;;;;;;3.20;99.90;;;;;;5030850;28;19928;-79
2022/12/05 07:21:05;;;;;;;;;;;3.20;99.90;;;;;;5048933;28;20381;-79
2022/12/05 07:23:32;;;;;;;;;;;3.20;99.90;;;;;;5043587;28;19990;-79
2022/12/05 07:25:59;;;;;;;;;;;3.20;99.90;;;;;;5023789;28;20406;-79
2022/12/05 07:28:26;;;;;;;;;;;3.10;99.90;;;;;;5047732;28;19932;-79
2022/12/05 07:30:59;;;;;;;;;;;3.20;99.90;;;;;;5050804;28;20325;-79
2022/12/05 07:33:25;;;;;;;;;;;3.20;99.90;;;;;;5047327;28;20433;-80
2022/12/05 07:35:52;;;;;;;;;;;3.30;99.90;;;;;;5059576;28;19936;-80
2022/12/05 07:38:20;;;;;;;;;;;3.40;99.90;;;;;;5047216;28;19936;-80
2022/12/05 07:40:47;;;;;;;;;;;3.40;99.90;;;;;;5036700;28;19924;-80
2022/12/05 07:43:14;;;;;;;;;;;3.50;99.90;;;;;;5049302;28;19941;-80
2022/12/05 07:45:40;;;;;;;;;;;3.60;99.90;;;;;;5035379;28;20267;-80
2022/12/05 07:48:07;;;;;;;;;;;3.60;99.90;;;;;;5035117;28;19936;-79
2022/12/05 07:50:34;;;;;;;;;;;3.60;99.90;;;;;;5032215;28;20094;-80
2022/12/05 07:53:01;;;;;;;;;;;3.60;99.90;;;;;;5029275;28;19933;-81
2022/12/05 07:55:29;;;;;;;;;;;3.50;99.90;;;;;;5033568;28;20312;-80
2022/12/05 07:57:55;;;;;;;;;;;4.10;99.90;;;;;;5033585;28;19937;-79
2022/12/05 08:00:22;;;;;;;;;;;3.60;99.90;;;;;;5049377;28;19929;-80
2022/12/05 08:02:49;;;;;;;;;;;3.60;99.90;;;;;;5034732;28;20031;-80
2022/12/05 08:05:16;;;;;;;;;;;3.60;99.90;;;;;;5050701;28;19940;-80
2022/12/05 08:07:42;;;;;;;;;;;3.60;99.90;;;;;;5047331;28;20383;-80
2022/12/05 08:10:09;;;;;;;;;;;3.60;99.90;;;;;;5041001;28;20008;-79
2022/12/05 08:12:38;;;;;;;;;;;3.60;99.90;;;;;;5047996;28;19929;-80
2022/12/05 08:15:05;;;;;;;;;;;3.60;99.90;;;;;;5053075;28;19935;-79
2022/12/05 08:17:32;;;;;;;;;;;3.50;99.90;;;;;;5054169;28;20065;-79
2022/12/05 08:19:59;;;;;;;;;;;3.50;99.90;;;;;;5048063;28;19929;-80
2022/12/05 08:22:25;;;;;;;;;;;3.50;99.90;;;;;;5042945;28;19925;-79
2022/12/05 08:24:52;;;;;;;;;;;3.60;99.90;;;;;;5052329;28;19929;-80
2022/12/05 08:27:19;;;;;;;;;;;3.60;99.90;;;;;;5053882;28;19940;-82
2022/12/05 08:29:49;;;;;;;38.80;17.43;;;3.50;99.90;;;;;;5055530;28;20059;-79
2022/12/05 08:32:16;;;;;;;;;;;3.30;99.90;;;;;;5053436;28;20263;-80
2022/12/05 08:34:43;;;;;;;;;;;3.40;99.90;;;;;;5038208;28;20384;-81
2022/12/05 08:37:10;;;;;;;;;;;3.40;99.90;;;;;;5041486;28;19924;-79
2022/12/05 08:39:36;;;;;;;;;;;3.40;99.90;;;;;;5065272;28;19962;-79
2022/12/05 08:42:03;;;;;;;;;;;3.50;99.90;;;;;;5046498;28;19921;-79
2022/12/05 08:44:30;;;;;;;;;;;3.50;99.90;;;;;;5074158;28;19932;-80
2022/12/05 08:46:58;;;;;;;;;;;3.50;99.90;;;;;;5065601;28;19951;-79
2022/12/05 08:49:25;;;;;;;;;;;3.40;99.90;;;;;;5039016;28;19970;-79
2022/12/05 08:51:51;;;;;;;;;;;3.50;99.90;;;;;;5050801;28;20038;-79
2022/12/05 08:54:18;;;;;;;;;;;4.10;99.90;;;;;;5049987;28;19928;-79
2022/12/05 08:56:45;;;;;;;;;;;3.50;99.90;;;;;;5030254;28;19929;-79
2022/12/05 08:59:11;;;;;;;;;;;3.50;99.90;;;;;;5034005;28;19924;-80
2022/12/05 09:01:39;;;;;;;;;;;3.50;99.90;;;;;;5033647;28;19924;-79
2022/12/05 09:04:07;;;;;;;;;;;3.40;99.90;;;;;;5051130;28;19924;-79
2022/12/05 09:06:34;;;;;;;;;;;3.40;99.90;;;;;;5033256;28;20392;-79
2022/12/05 09:09:03;;;;;;;;;;;3.50;99.90;;;;;;5037071;28;19924;-79
2022/12/05 09:11:31;;;;;;;;;;;3.60;99.90;;;;;;5051893;28;20372;-79
2022/12/05 09:13:58;;;;;;;;;;;3.60;99.90;;;;;;5048059;28;19924;-78
2022/12/05 09:16:28;;;;;;;;;;;3.60;99.90;;;;;;5047270;28;19933;-78
2022/12/05 09:18:54;;;;;;;;;;;3.60;99.90;;;;;;5051943;28;20017;-78
2022/12/05 09:21:23;;;;;;;;;;;3.50;99.90;;;;;;5042128;28;20397;-79
2022/12/05 09:23:50;;;;;;;;;;;3.50;99.90;;;;;;5030972;28;20369;-78
2022/12/05 09:26:18;;;;;;;;;;;3.50;99.90;;;;;;5048015;28;20306;-78
2022/12/05 09:28:45;;;;;;;;;;;3.50;99.90;;;;;;5030004;28;20372;-78
2022/12/05 09:31:13;;;;;;;;;;;3.70;99.90;;;;;;5030624;28;19921;-79
2022/12/05 09:33:40;;;;;;;;;;;3.90;99.90;;;;;;5032731;28;20170;-80
2022/12/05 09:36:08;;;;;;;;;;;4.00;99.90;;;;;;5050137;28;19924;-79
2022/12/05 09:38:36;;;;;;;;;;;4.00;99.90;;;;;;5026290;28;19931;-79
2022/12/05 09:41:06;;;;;;;;;;;4.00;99.90;;;;;;5024366;28;20347;-79
2022/12/05 09:43:35;;;;;;;;;;;4.10;99.90;;;;;;5026698;28;19932;-78
2022/12/05 09:46:04;;;;;;;;;;;4.10;99.90;;;;;;5029492;28;20390;-78
2022/12/05 09:48:31;;;;;;;;;;;4.30;99.90;;;;;;5029113;28;19924;-79
2022/12/05 09:51:00;;;;;;;;;;;4.30;99.90;;;;;;5043723;28;20227;-78
2022/12/05 09:53:29;;;;;;;;;;;4.30;99.90;;;;;;5029004;28;19920;-78
2022/12/05 09:56:01;;;;;;;;;;;4.20;99.90;;;;;;5030164;28;20310;-79
2022/12/05 09:58:33;;;;;;;;;;;4.30;99.90;;;;;;5031189;28;19932;-79
2022/12/05 10:01:03;;;;;;;;;;;4.40;99.90;;;;;;5049748;28;19927;-79
2022/12/05 10:03:32;;;;;;;;;;;5.40;99.90;;;;;;5038762;28;19967;-79
2022/12/05 10:06:06;;;;;;;;;;;4.50;99.90;;;;;;5059373;28;19920;-79
2022/12/05 10:08:38;;;;;;;;;;;4.50;99.90;;;;;;5034005;28;19978;-80
2022/12/05 10:11:10;;;;;;;;;;;4.50;99.90;;;;;;5033571;28;20058;-79
2022/12/05 10:13:45;;;;;;;;;;;4.40;99.90;;;;;;5043624;28;20373;-79
2022/12/05 10:16:13;;;;;;;;;;;4.40;99.90;;;;;;5027173;28;19956;-79
2022/12/05 10:18:42;;;;;;;;;;;4.50;99.90;;;;;;5028158;28;19947;-79
2022/12/05 10:21:12;;;;;;;;;;;4.60;99.90;;;;;;5027208;28;20021;-79
2022/12/05 10:23:44;;;;;;;;;;;4.70;99.90;;;;;;5027100;28;19925;-79
2022/12/05 10:26:15;;;;;;;;;;;4.80;99.90;;;;;;5051206;28;19925;-81
2022/12/05 10:28:43;;;;;;;;;;;4.80;99.90;;;;;;5046475;28;19952;-81
2022/12/05 10:31:11;;;;;;;;;;;4.80;99.90;;;;;;5053117;28;20303;-79
2022/12/05 10:33:38;;;;;;;;;;;4.70;99.90;;;;;;5045287;28;20200;-79
2022/12/05 10:36:12;;;;;;;;;;;4.70;99.90;;;;;;5041443;28;20066;-80
2022/12/05 10:38:40;;;;;;;;;;;4.70;99.90;;;;;;5032076;28;20305;-80
2022/12/05 10:41:07;;;;;;;;;;;4.80;99.90;;;;;;5045926;28;19931;-80
2022/12/05 10:43:37;;;;;;;;;;;4.80;99.90;;;;;;5044675;28;19935;-81
2022/12/05 10:46:04;;;;;;;;;;;4.70;99.90;;;;;;5044123;28;19932;-80
2022/12/05 10:48:34;;;;;;;;;;;4.80;99.90;;;;;;5045313;28;19928;-79
2022/12/05 10:51:01;;;;;;;;;;;4.80;99.90;;;;;;5026059;28;19932;-80
2022/12/05 10:53:31;;;;;;;;;;;6.40;99.90;;;;;;5045026;28;20007;-80
2022/12/05 10:55:58;;;;;;;;;;;4.90;99.90;;;;;;5025230;28;19925;-79
2022/12/05 10:58:26;;;;;;;;;;;4.90;99.90;;;;;;5043093;28;19921;-79
2022/12/05 11:00:54;;;;;;;;;;;4.90;99.90;;;;;;5048090;28;20374;-79
2022/12/05 11:03:26;;;;;;;;;;;4.90;99.90;;;;;;5045270;28;19924;-79
2022/12/05 11:05:55;;;;;;;;;;;4.90;99.90;;;;;;5053908;28;19932;-79
2022/12/05 11:08:23;;;;;;;;;;;4.90;99.90;;;;;;5041246;28;19959;-79
2022/12/05 11:11:00;;;;;;;;;;;4.90;99.90;;;;;;5028652;28;20382;-79
2022/12/05 11:13:27;;;;;;;;;;;4.90;99.90;;;;;;5038655;28;19924;-79
2022/12/05 11:15:55;;;;;;;;;;;4.80;99.90;;;;;;5051146;28;19931;-79
2022/12/05 11:18:27;;;;;;;;;;;4.80;99.90;;;;;;5044800;28;19933;-79
2022/12/05 11:20:54;;;;;;;;;;;4.80;99.90;;;;;;5043310;28;19929;-79
2022/12/05 11:23:26;;;;;;;;;;;4.70;99.90;;;;;;5043208;28;20460;-79
2022/12/05 11:25:53;;;;;;;;;;;4.70;99.90;;;;;;5048864;28;19921;-79
2022/12/05 11:28:23;;;;;;;;;;;4.70;99.90;;;;;;5052616;28;20010;-79
2022/12/05 11:30:57;;;;;;;;;;;4.80;99.90;;;;;;5045426;28;19925;-79
2022/12/05 11:33:24;;;;;;;;;;;4.80;99.90;;;;;;5042212;28;20035;-79
2022/12/05 11:35:53;;;;;;;;;;;4.70;99.90;;;;;;5043630;28;19931;-79
2022/12/05 11:38:21;;;;;;;;;;;4.70;99.90;;;;;;5029076;28;19921;-80
2022/12/05 11:40:53;;;;;;;;;;;4.70;99.90;;;;;;5054727;28;19924;-80
2022/12/05 11:43:36;;;;;;;;;;;4.60;99.90;;;;;;5046854;28;19936;-79
2022/12/05 11:46:09;;;;;;;;;;;4.40;99.90;;;;;;5048884;28;19970;-79
2022/12/05 11:48:45;;;;;;;;;;;4.30;99.90;;;;;;5024138;28;20464;-80
2022/12/05 11:51:18;;;;;;;;;;;4.20;99.90;;;;;;5025354;28;19924;-79
2022/12/05 11:53:51;;;;;;;;;;;4.30;99.90;;;;;;5046009;28;20075;-79
2022/12/05 11:56:25;;;;;;;;;;;4.30;99.90;;;;;;5032877;28;19925;-79
2022/12/05 11:58:56;;;;;;;;;;;4.40;99.90;;;;;;5033442;28;19936;-80
2022/12/05 12:01:32;;;;;;;;;;;4.40;99.90;;;;;;5030607;28;20595;-79
2022/12/05 12:04:17;;;;;;;;;;;4.30;99.90;;;;;;5032995;28;20056;-79
2022/12/05 12:06:51;;;;;;;;;;;4.20;99.90;;;;;;5033033;28;19921;-79
2022/12/05 12:09:23;;;;;;;;;;;4.20;99.90;;;;;;5035673;28;19943;-79
2022/12/05 12:11:54;;;;;;;;;;;4.20;99.90;;;;;;5058560;28;19925;-80
2022/12/05 12:14:25;;;;;;;;;;;4.20;99.90;;;;;;5066234;28;20072;-80
2022/12/05 12:16:57;;;;;;;;;;;4.20;99.90;;;;;;5064076;28;19924;-80
2022/12/05 12:19:39;;;;;;;;;;;4.30;99.90;;;;;;5049126;28;20467;-80
2022/12/05 12:22:14;;;;;;;;;;;4.20;99.90;;;;;;5037205;28;19924;-81
2022/12/05 12:24:49;;;;;;;;;;;4.20;99.90;;;;;;5033409;28;19986;-79
2022/12/05 12:27:25;;;;;;;;;;;4.20;99.90;;;;;;5049117;28;19921;-79
2022/12/05 12:29:56;;;;;;;;;;;4.20;99.90;;;;;;5042872;28;19921;-80
2022/12/05 12:32:29;;;;;;;;;;;4.20;99.90;;;;;;5036943;28;19935;-80
2022/12/05 12:35:03;;;;;;;;;;;4.30;99.90;;;;;;5053026;28;20000;-80
2022/12/05 12:37:34;;;;;;;;;;;4.30;99.90;;;;;;5055197;28;19925;-80
2022/12/05 12:40:05;;;;;;;;;;;4.30;99.90;;;;;;5048398;28;19943;-80
2022/12/05 12:42:36;;;;;;;;;;;4.40;99.90;;;;;;5059889;28;19925;-80
2022/12/05 12:45:12;;;;;;;;;;;4.30;99.90;;;;;;5067199;28;19933;-79
2022/12/05 12:47:44;;;;;;;;;;;4.30;99.90;;;;;;5067722;28;19924;-80
2022/12/05 12:50:14;;;;;;;;;;;4.30;99.90;;;;;;5055949;28;20400;-79
2022/12/05 12:52:47;;;;;;;;;;;4.30;99.90;;;;;;5055156;28;19932;-79
2022/12/05 12:55:21;;;;;;;;;;;4.30;99.90;;;;;;5044525;28;19921;-80
2022/12/05 12:58:04;;;;;;;;;;;4.30;99.90;;;;;;5051997;28;20262;-79
2022/12/05 13:00:36;;;;;;;;;;;4.40;99.90;;;;;;5043743;28;19988;-79
2022/12/05 13:03:08;;;;;;;;;;;4.40;99.90;;;;;;5035948;28;19975;-79
2022/12/05 13:05:39;;;;;;;;;;;4.40;99.90;;;;;;5044220;28;19920;-79
2022/12/05 13:08:10;;;;;;;;;;;4.40;99.90;;;;;;5036026;28;19929;-80
2022/12/05 13:10:39;;;;;;;;;;;4.40;99.90;;;;;;5039795;28;19931;-80
2022/12/05 13:13:07;;;;;;;;;;;4.40;99.90;;;;;;5032042;28;20410;-80
2022/12/05 13:15:36;;;;;;;;;;;4.40;99.90;;;;;;5024112;28;19936;-80
2022/12/05 13:18:04;;;;;;;;;;;4.70;99.90;;;;;;5026591;28;19927;-79
2022/12/05 13:20:34;;;;;;;;;;;4.20;99.90;;;;;;5045214;28;20003;-79
2022/12/05 13:23:02;;;;;;;;;;;4.20;99.90;;;;;;5049849;28;19924;-79
2022/12/05 13:25:30;;;;;;;;;;;4.20;99.90;;;;;;5049828;28;19925;-79
2022/12/05 13:27:58;;;;;;;;;;;4.20;99.90;;;;;;5033468;28;19928;-79
2022/12/05 13:30:26;;;;;;;;;;;4.20;99.90;;;;;;5027718;28;19925;-79
2022/12/05 13:32:55;;;;;;;;;;;4.20;99.90;;;;;;5052959;28;20444;-80
2022/12/05 13:43:52;;;;;;;;;;;4.00;99.90;;;;;;5025493;28;20416;-79
2022/12/05 13:46:21;;;;;;;;;;;3.90;99.90;;;;;;5030641;28;19936;-78
2022/12/05 13:48:48;;;;;;;;;;;3.90;99.90;;;;;;5032227;28;19929;-79
2022/12/05 13:51:22;;;;;;;;;;;3.80;99.90;;;;;;5049303;28;20003;-80
2022/12/05 13:53:59;;;;;;;;;;;3.70;99.90;;;;;;5049116;28;20049;-79
2022/12/05 13:56:27;;;;;;;;;;;3.80;99.90;;;;;;5043413;28;19924;-79
2022/12/05 13:58:56;;;;;;;;;;;5.20;99.90;;;;;;5032022;28;19935;-79
2022/12/05 14:01:45;;;;;;;;;;;4.20;99.90;;;;;;5055088;28;20366;-79
2022/12/05 14:04:23;;;;;;;;;;;3.70;99.90;;;;;;5049670;28;19920;-79
2022/12/05 14:06:56;;;;;;;;;;;3.80;99.90;;;;;;5052659;28;19920;-79
2022/12/05 14:09:29;;;;;;;;;;;3.80;99.90;;;;;;5036356;28;19920;-78
2022/12/05 14:12:11;;;;;;;;;;;3.70;99.90;;;;;;5072946;28;20373;-79
2022/12/05 14:14:59;;;;;;;;;;;3.60;99.90;;;;;;5023485;28;19971;-79
2022/12/05 14:17:27;;;;;;;;;;;3.60;99.90;;;;;;5027641;28;19920;-79
2022/12/05 14:20:05;;;;;;;;;;;3.50;99.90;;;;;;5055382;28;19971;-80
2022/12/05 14:22:53;;;;;;;;;;;3.50;99.90;;;;;;5053557;28;19905;-79
2022/12/05 14:25:30;;;;;;;;;;;3.40;99.90;;;;;;5050856;28;19925;-80
2022/12/05 14:28:01;;;;;;;;;;;3.40;99.90;;;;;;5067337;28;19920;-78
2022/12/05 14:30:32;;;;;;;;;;;3.40;99.90;;;;;;5048873;28;19928;-79
2022/12/05 14:33:02;;;;;;;;;;;3.40;99.90;;;;;;5047211;28;19925;-80
2022/12/05 14:35:31;;;;;;;;;;;3.40;99.90;;;;;;5066543;28;20018;-79
2022/12/05 14:38:02;;;;;;;;;;;3.40;99.90;;;;;;5040205;28;19928;-78
2022/12/05 14:40:32;;;;;;;;;;;3.40;99.90;;;;;;5042766;28;19921;-79
2022/12/05 14:43:03;;;;;;;;;;;3.30;99.90;;;;;;5063085;28;19966;-80
2022/12/05 14:45:33;;;;;;;;;;;3.40;99.90;;;;;;5052533;28;19944;-79
2022/12/05 14:48:04;;;;;;;;;;;3.40;99.90;;;;;;5039656;28;19986;-79
2022/12/05 14:50:43;;;;;;;;;;;3.30;99.90;;;;;;5046901;28;19921;-79
2022/12/05 14:53:24;;;;;;;;;;;3.30;99.90;;;;;;5045943;28;20435;-81
2022/12/05 14:55:54;;;;;;;;;;;3.30;99.90;;;;;;5056037;28;19925;-81
2022/12/05 14:58:22;;;;;;;;;;;3.30;99.90;;;;;;5038725;28;20374;-79